createdAt,value
2023-02-14T00:00:27.481Z,29.27
2023-02-14T00:02:54.040Z,30.17
2023-02-14T00:05:20.585Z,32.25
2023-02-14T00:07:47.118Z,25.90
2023-02-14T00:10:13.615Z,30.40
2023-02-14T00:12:40.103Z,30.23
2023-02-14T00:15:25.305Z,22.70
2023-02-14T00:17:55.842Z,28.48
2023-02-14T00:20:23.073Z,27.30
2023-02-14T00:22:49.886Z,22.73
2023-02-14T00:25:16.421Z,24.60
2023-02-14T00:27:42.927Z,26.50
2023-02-14T00:30:11.181Z,27.07
2023-02-14T00:32:41.580Z,21.70
2023-02-14T00:35:08.760Z,23.67
2023-02-14T00:37:35.802Z,22.55
2023-02-14T00:40:02.308Z,23.20
2023-02-14T00:42:28.783Z,24.97
2023-02-14T00:44:55.241Z,22.50
2023-02-14T00:47:21.752Z,26.27
2023-02-14T00:49:48.196Z,24.08
2023-02-14T00:52:14.657Z,23.23
2023-02-14T00:54:41.119Z,25.40
2023-02-14T00:57:07.586Z,21.00
2023-02-14T00:59:36.019Z,25.97
2023-02-14T01:02:16.389Z,22.30
2023-02-14T01:04:42.883Z,21.30
2023-02-14T01:07:09.349Z,23.42
2023-02-14T01:09:35.797Z,23.75
2023-02-14T01:12:02.416Z,23.55
2023-02-14T01:14:28.915Z,23.20
2023-02-14T01:16:55.411Z,22.02
2023-02-14T01:19:24.152Z,25.10
2023-02-14T01:21:50.609Z,22.33
2023-02-14T01:24:17.067Z,22.63
2023-02-14T01:26:43.521Z,27.88
2023-02-14T01:29:09.968Z,21.27
2023-02-14T01:31:36.550Z,24.92
2023-02-14T01:34:03.756Z,24.98
2023-02-14T01:36:33.457Z,25.27
2023-02-14T01:39:02.376Z,24.15
2023-02-14T01:41:30.990Z,25.40
2023-02-14T01:44:06.520Z,24.75
2023-02-14T01:46:36.098Z,28.15
2023-02-14T01:49:27.078Z,20.42
2023-02-14T01:52:18.406Z,25.83
2023-02-14T01:54:50.842Z,22.35
2023-02-14T01:57:19.360Z,23.38
2023-02-14T01:59:53.243Z,23.10
2023-02-14T02:02:23.647Z,32.30
2023-02-14T02:04:54.122Z,30.50
2023-02-14T02:07:24.493Z,20.50
2023-02-14T02:09:55.344Z,22.23
2023-02-14T02:12:23.390Z,25.08
2023-02-14T02:14:53.033Z,22.27
2023-02-14T02:17:28.466Z,33.40
2023-02-14T02:20:19.890Z,29.25
2023-02-14T02:23:01.630Z,38.70
2023-02-14T02:25:58.880Z,44.30
2023-02-14T02:28:42.127Z,54.30
2023-02-14T02:31:32.993Z,26.38
2023-02-14T02:34:19.272Z,38.38
2023-02-14T02:37:00.906Z,40.15
2023-02-14T02:39:30.053Z,27.98
2023-02-14T02:42:31.882Z,27.25
2023-02-14T02:45:10.167Z,22.92
2023-02-14T02:47:58.988Z,25.50
2023-02-14T02:50:49.045Z,22.58
2023-02-14T02:53:53.380Z,30.48
2023-02-14T02:56:44.136Z,26.52
2023-02-14T02:59:20.635Z,23.13
2023-02-14T03:02:11.232Z,27.92
2023-02-14T03:04:55.473Z,26.65
2023-02-14T03:07:37.400Z,29.92
2023-02-14T03:10:11.452Z,28.48
2023-02-14T03:13:05.313Z,24.48
2023-02-14T03:16:08.736Z,23.17
2023-02-14T03:18:59.969Z,24.15
2023-02-14T03:21:37.832Z,19.63
2023-02-14T03:24:10.108Z,25.45
2023-02-14T03:26:47.515Z,26.00
2023-02-14T03:29:37.123Z,23.50
2023-02-14T03:32:15.479Z,18.55
2023-02-14T03:34:48.397Z,22.27
2023-02-14T03:37:20.028Z,23.35
2023-02-14T03:40:02.253Z,19.15
2023-02-14T03:42:36.943Z,23.77
2023-02-14T03:45:04.919Z,23.85
2023-02-14T03:47:33.288Z,21.58
2023-02-14T03:50:28.620Z,24.45
2023-02-14T03:52:56.386Z,21.23
2023-02-14T03:55:28.256Z,23.10
2023-02-14T03:58:04.219Z,21.65
2023-02-14T04:00:31.863Z,20.52
2023-02-14T04:03:05.732Z,24.80
2023-02-14T04:05:32.541Z,21.77
2023-02-14T04:07:59.206Z,20.50
2023-02-14T04:10:26.361Z,22.77
2023-02-14T04:12:53.158Z,22.83
2023-02-14T04:15:19.614Z,21.65
2023-02-14T04:18:04.470Z,21.85
2023-02-14T04:20:30.979Z,26.38
2023-02-14T04:22:57.767Z,23.75
2023-02-14T04:25:24.355Z,21.05
2023-02-14T04:27:51.020Z,22.38
2023-02-14T04:30:18.087Z,20.20
2023-02-14T04:32:44.717Z,22.45
2023-02-14T04:35:11.503Z,25.40
2023-02-14T04:37:38.267Z,20.75
2023-02-14T04:40:05.473Z,21.75
2023-02-14T04:42:32.181Z,22.40
2023-02-14T04:44:58.859Z,20.27
2023-02-14T04:47:25.454Z,24.90
2023-02-14T04:49:52.158Z,20.38
2023-02-14T04:52:18.828Z,19.42
2023-02-14T04:54:45.289Z,23.83
2023-02-14T04:57:12.041Z,19.33
2023-02-14T04:59:38.559Z,21.73
2023-02-14T05:02:05.230Z,23.23
2023-02-14T05:04:31.827Z,21.52
2023-02-14T05:06:58.428Z,21.30
2023-02-14T05:09:24.929Z,19.58
2023-02-14T05:11:51.893Z,23.08
2023-02-14T05:14:18.392Z,19.83
2023-02-14T05:16:45.118Z,21.63
2023-02-14T05:19:11.752Z,22.05
2023-02-14T05:21:38.623Z,24.00
2023-02-14T05:24:05.907Z,21.17
2023-02-14T05:26:32.975Z,21.50
2023-02-14T05:28:59.389Z,20.88
2023-02-14T05:31:26.165Z,21.17
2023-02-14T05:33:52.837Z,23.48
2023-02-14T05:36:19.485Z,20.02
2023-02-14T05:38:45.964Z,19.15
2023-02-14T05:41:12.750Z,24.55
2023-02-14T05:43:39.188Z,24.02
2023-02-14T05:46:06.333Z,19.30
2023-02-14T05:48:33.771Z,19.20
2023-02-14T05:51:08.572Z,21.27
2023-02-14T05:53:35.767Z,24.95
2023-02-14T05:56:02.625Z,22.67
2023-02-14T05:58:29.119Z,24.48
2023-02-14T06:00:59.777Z,24.70
2023-02-14T06:03:26.689Z,26.58
2023-02-14T06:05:53.121Z,24.30
2023-02-14T06:08:19.838Z,23.42
2023-02-14T06:10:46.725Z,25.05
2023-02-14T06:13:13.249Z,19.90
2023-02-14T06:15:39.720Z,20.92
2023-02-14T06:18:06.414Z,21.92
2023-02-14T06:20:32.922Z,19.52
2023-02-14T06:22:59.442Z,23.85
2023-02-14T06:25:26.125Z,24.27
2023-02-14T06:27:56.695Z,22.20
2023-02-14T06:30:23.284Z,23.10
2023-02-14T06:32:49.861Z,24.27
2023-02-14T06:35:16.631Z,22.52
2023-02-14T06:37:45.150Z,24.67
2023-02-14T06:40:12.445Z,24.52
2023-02-14T06:42:38.983Z,25.00
2023-02-14T06:45:06.064Z,25.83
2023-02-14T06:47:34.889Z,23.98
2023-02-14T06:50:01.677Z,21.65
2023-02-14T06:52:28.146Z,26.00
2023-02-14T06:54:54.591Z,22.85
2023-02-14T06:57:21.071Z,21.17
2023-02-14T06:59:47.556Z,25.08
2023-02-14T07:02:14.073Z,23.33
2023-02-14T07:04:40.768Z,19.75
2023-02-14T07:07:07.245Z,22.05
2023-02-14T07:09:33.700Z,25.80
2023-02-14T07:12:00.188Z,23.75
2023-02-14T07:14:26.832Z,33.13
2023-02-14T07:16:53.317Z,25.77
2023-02-14T07:19:19.772Z,27.90
2023-02-14T07:21:46.262Z,22.40
2023-02-14T07:24:12.744Z,21.83
2023-02-14T07:26:39.210Z,28.25
2023-02-14T07:29:05.659Z,20.27
2023-02-14T07:31:32.240Z,22.93
2023-02-14T07:34:01.145Z,28.57
2023-02-14T07:36:27.734Z,22.13
2023-02-14T07:38:56.011Z,21.67
2023-02-14T07:41:22.647Z,24.93
2023-02-14T07:43:49.114Z,25.63
2023-02-14T07:46:17.335Z,26.85
2023-02-14T07:48:43.925Z,24.05
2023-02-14T07:51:11.134Z,23.58
2023-02-14T07:53:37.677Z,22.58
2023-02-14T07:56:04.273Z,24.85
2023-02-14T07:58:30.745Z,24.98
2023-02-14T08:00:57.369Z,25.80
2023-02-14T08:03:24.009Z,25.42
2023-02-14T08:05:57.043Z,20.20
2023-02-14T08:08:26.051Z,21.67
2023-02-14T08:10:52.492Z,26.25
2023-02-14T08:13:19.022Z,27.20
2023-02-14T08:16:03.955Z,22.33
2023-02-14T08:18:35.849Z,26.77
2023-02-14T08:21:03.166Z,25.80
2023-02-14T08:23:29.744Z,29.77
2023-02-14T08:25:56.419Z,29.30
2023-02-14T08:28:23.329Z,26.75
2023-02-14T08:30:50.219Z,31.25
2023-02-14T08:33:16.755Z,25.10
2023-02-14T08:35:43.252Z,27.00
2023-02-14T08:38:09.766Z,27.58
2023-02-14T08:40:37.059Z,30.20
2023-02-14T08:43:07.497Z,24.10
2023-02-14T08:45:34.003Z,21.15
2023-02-14T08:48:04.844Z,27.38
2023-02-14T08:50:31.431Z,23.58
2023-02-14T08:52:58.228Z,27.30
2023-02-14T08:55:24.783Z,31.10
2023-02-14T08:57:51.319Z,28.23
2023-02-14T09:00:19.338Z,23.65
2023-02-14T09:02:45.813Z,26.58
2023-02-14T09:05:13.098Z,24.33
2023-02-14T09:07:39.584Z,23.63
2023-02-14T09:10:06.803Z,31.43
2023-02-14T09:12:33.263Z,29.20
2023-02-14T09:14:59.743Z,25.43
2023-02-14T09:17:26.186Z,22.33
2023-02-14T09:19:52.661Z,27.00
2023-02-14T09:22:19.850Z,23.93
2023-02-14T09:24:46.351Z,30.70
2023-02-14T09:27:12.803Z,23.50
2023-02-14T09:29:39.265Z,25.00
2023-02-14T09:32:05.838Z,24.87
2023-02-14T09:34:53.141Z,27.33
2023-02-14T09:37:38.082Z,26.20
2023-02-14T09:40:05.327Z,23.33
2023-02-14T09:42:51.022Z,29.65
2023-02-14T09:45:21.868Z,23.67
2023-02-14T09:48:02.888Z,27.03
2023-02-14T09:50:40.349Z,31.23
2023-02-14T09:53:15.531Z,22.40
2023-02-14T09:56:50.319Z,27.47
2023-02-14T09:59:22.762Z,25.93
2023-02-14T10:01:56.758Z,28.30
2023-02-14T10:04:39.872Z,25.67
2023-02-14T10:07:58.000Z,24.63
2023-02-14T10:10:30.745Z,24.80
2023-02-14T10:13:21.239Z,24.83
2023-02-14T10:15:59.143Z,30.40
2023-02-14T10:18:30.718Z,29.87
2023-02-14T10:20:59.466Z,29.10
2023-02-14T10:23:30.628Z,26.27
2023-02-14T10:26:01.465Z,23.47
2023-02-14T10:28:49.119Z,23.47
2023-02-14T10:31:27.758Z,27.60
2023-02-14T10:33:57.545Z,27.53
2023-02-14T10:36:31.559Z,22.47
2023-02-14T10:39:06.534Z,22.30
2023-02-14T10:41:56.122Z,21.70
2023-02-14T10:44:36.355Z,22.00
2023-02-14T10:47:12.143Z,26.47
2023-02-14T10:49:49.912Z,18.63
2023-02-14T10:52:30.301Z,26.17
2023-02-14T10:54:58.925Z,26.70
2023-02-14T10:57:35.787Z,23.13
2023-02-14T11:00:05.265Z,19.90
2023-02-14T11:02:37.892Z,22.33
2023-02-14T11:05:05.474Z,24.70
2023-02-14T11:07:32.501Z,26.73
2023-02-14T11:09:59.200Z,24.47
2023-02-14T11:12:51.876Z,27.80
2023-02-14T11:15:34.014Z,25.77
2023-02-14T11:18:19.995Z,18.90
2023-02-14T11:21:08.825Z,23.23
2023-02-14T11:23:44.077Z,21.77
2023-02-14T11:26:50.010Z,26.87
2023-02-14T11:29:27.031Z,26.77
2023-02-14T11:31:54.618Z,20.90
2023-02-14T11:34:36.381Z,24.30
2023-02-14T11:37:27.756Z,19.63
2023-02-14T11:39:56.403Z,24.73
2023-02-14T11:42:43.943Z,25.00
2023-02-14T11:45:36.070Z,23.93
2023-02-14T11:48:34.890Z,19.87
2023-02-14T11:51:06.058Z,19.10
2023-02-14T11:53:46.090Z,21.67
2023-02-14T11:56:13.521Z,23.53
2023-02-14T11:58:45.471Z,20.73
2023-02-14T12:01:20.109Z,18.73
2023-02-14T12:03:47.676Z,25.90
2023-02-14T12:06:26.422Z,18.83
2023-02-14T12:09:10.717Z,22.93
2023-02-14T12:11:37.584Z,21.03
2023-02-14T12:14:04.125Z,23.63
2023-02-14T12:16:38.758Z,24.93
2023-02-14T12:19:14.120Z,21.77
2023-02-14T12:22:06.124Z,21.87
2023-02-14T12:24:53.135Z,23.40
2023-02-14T12:27:24.746Z,20.77
2023-02-14T12:30:07.695Z,21.27
2023-02-14T12:32:34.815Z,27.83
2023-02-14T12:35:24.255Z,22.53
2023-02-14T12:38:04.711Z,22.47
2023-02-14T12:40:40.576Z,24.97
2023-02-14T12:43:19.838Z,23.23
2023-02-14T12:46:01.982Z,22.97
2023-02-14T12:48:59.274Z,27.03
2023-02-14T12:51:58.348Z,20.97
2023-02-14T12:54:38.218Z,23.70
2023-02-14T12:57:38.951Z,22.40
2023-02-14T13:00:22.144Z,19.80
2023-02-14T13:03:08.784Z,20.37
2023-02-14T13:05:54.024Z,18.90
2023-02-14T13:08:46.374Z,21.53
2023-02-14T13:11:36.220Z,24.17
2023-02-14T13:14:14.716Z,20.33
2023-02-14T13:16:53.093Z,24.50
2023-02-14T13:19:41.736Z,23.33
2023-02-14T13:22:11.604Z,22.13
2023-02-14T13:24:43.296Z,21.43
2023-02-14T13:27:15.586Z,24.13
2023-02-14T13:29:58.040Z,19.60
2023-02-14T13:32:27.441Z,22.53
2023-02-14T13:34:54.231Z,27.27
2023-02-14T13:37:22.880Z,20.47
2023-02-14T13:39:55.690Z,23.23
2023-02-14T13:42:47.555Z,23.50
2023-02-14T13:45:35.289Z,21.43
2023-02-14T13:48:06.516Z,24.43
2023-02-14T13:50:35.044Z,21.50
2023-02-14T13:53:01.518Z,26.13
2023-02-14T13:55:36.347Z,23.17
2023-02-14T13:58:13.117Z,26.17
2023-02-14T14:00:42.076Z,25.33
2023-02-14T14:03:27.746Z,27.93
2023-02-14T14:05:59.777Z,26.23
2023-02-14T14:08:30.713Z,27.70
2023-02-14T14:11:00.208Z,25.90
2023-02-14T14:13:42.079Z,24.57
2023-02-14T14:16:23.670Z,27.40
2023-02-14T14:18:56.499Z,24.03
2023-02-14T14:21:31.097Z,22.20
2023-02-14T14:24:22.951Z,26.23
2023-02-14T14:27:15.342Z,26.37
2023-02-14T14:29:47.755Z,31.23
2023-02-14T14:32:26.265Z,25.27
2023-02-14T14:34:59.827Z,30.50
2023-02-14T14:37:31.682Z,25.13
2023-02-14T14:39:59.980Z,27.37
2023-02-14T14:42:32.311Z,26.50
2023-02-14T14:45:08.003Z,34.63
2023-02-14T14:47:45.288Z,30.80
2023-02-14T14:50:22.367Z,30.60
2023-02-14T14:52:51.283Z,26.10
2023-02-14T14:55:23.702Z,23.43
2023-02-14T14:57:54.461Z,27.13
2023-02-14T15:00:30.011Z,24.70
2023-02-14T15:03:05.026Z,21.23
2023-02-14T15:05:35.754Z,23.67
2023-02-14T15:08:20.468Z,22.53
2023-02-14T15:11:08.237Z,31.03
2023-02-14T15:13:55.016Z,27.33
2023-02-14T15:16:25.149Z,29.43
2023-02-14T15:18:55.041Z,25.40
2023-02-14T15:21:21.582Z,35.83
2023-02-14T15:23:48.141Z,25.17
2023-02-14T15:26:20.197Z,27.60
2023-02-14T15:28:54.550Z,24.83
2023-02-14T15:31:21.372Z,28.97
2023-02-14T15:33:48.003Z,28.03
2023-02-14T15:36:22.450Z,29.60
2023-02-14T15:38:48.905Z,32.43
2023-02-14T15:41:16.819Z,29.07
2023-02-14T15:43:43.287Z,28.70
2023-02-14T15:46:17.815Z,29.43
2023-02-14T15:48:45.300Z,24.70
2023-02-14T15:51:24.447Z,28.23
2023-02-14T15:53:58.354Z,30.10
2023-02-14T15:56:28.572Z,30.97
2023-02-14T15:59:04.836Z,29.83
2023-02-14T16:01:32.848Z,34.13
2023-02-14T16:04:02.458Z,29.23
2023-02-14T16:06:35.440Z,31.80
2023-02-14T16:09:03.127Z,33.30
2023-02-14T16:11:37.273Z,36.87
2023-02-14T16:14:33.037Z,28.33
2023-02-14T16:17:05.894Z,34.27
2023-02-14T16:19:41.484Z,29.83
2023-02-14T16:22:10.260Z,34.57
2023-02-14T16:24:37.884Z,31.50
2023-02-14T16:27:06.949Z,33.40
2023-02-14T16:29:36.694Z,34.80
2023-02-14T16:32:17.766Z,32.47
2023-02-14T16:34:47.037Z,28.67
2023-02-14T16:37:30.266Z,35.37
2023-02-14T16:39:57.682Z,29.70
2023-02-14T16:42:24.296Z,33.63
2023-02-14T16:44:51.054Z,44.23
2023-02-14T16:47:19.297Z,37.80
2023-02-14T16:49:45.859Z,33.33
2023-02-14T16:52:14.994Z,34.63
2023-02-14T16:54:41.723Z,35.67
2023-02-14T16:57:12.363Z,35.93
2023-02-14T16:59:39.007Z,39.80
2023-02-14T17:02:05.609Z,33.40
2023-02-14T17:04:32.206Z,35.50
2023-02-14T17:07:01.655Z,43.87
2023-02-14T17:09:32.171Z,33.13
2023-02-14T17:12:02.202Z,43.47
2023-02-14T17:14:34.292Z,35.57
2023-02-14T17:17:00.914Z,36.97
2023-02-14T17:19:27.413Z,34.47
2023-02-14T17:21:57.657Z,37.83
2023-02-14T17:24:24.169Z,34.50
2023-02-14T17:26:50.600Z,37.53
2023-02-14T17:29:17.061Z,38.73
2023-02-14T17:31:44.031Z,38.13
2023-02-14T17:34:10.857Z,34.53
2023-02-14T17:36:37.765Z,41.13
2023-02-14T17:39:05.207Z,35.38
2023-02-14T17:41:31.856Z,34.70
2023-02-14T17:44:01.303Z,38.10
2023-02-14T17:46:28.799Z,35.27
2023-02-14T17:48:56.106Z,36.10
2023-02-14T17:51:22.597Z,40.57
2023-02-14T17:53:49.542Z,35.35
2023-02-14T17:56:24.220Z,37.30
2023-02-14T17:58:51.859Z,39.03
2023-02-14T18:01:21.214Z,33.03
2023-02-14T18:03:47.794Z,35.30
2023-02-14T18:06:14.472Z,35.13
2023-02-14T18:08:49.256Z,36.97
2023-02-14T18:11:16.644Z,34.50
2023-02-14T18:13:44.373Z,44.08
2023-02-14T18:16:13.348Z,37.23
2023-02-14T18:18:40.092Z,37.50
2023-02-14T18:21:09.053Z,35.85
2023-02-14T18:23:35.731Z,40.00
2023-02-14T18:26:04.736Z,40.20
2023-02-14T18:28:32.121Z,36.55
2023-02-14T18:31:07.175Z,31.70
2023-02-14T18:33:34.640Z,36.80
2023-02-14T18:36:05.482Z,33.47
2023-02-14T18:38:32.071Z,34.72
2023-02-14T18:41:06.427Z,37.23
2023-02-14T18:43:33.063Z,33.28
2023-02-14T18:46:07.950Z,37.87
2023-02-14T18:48:34.811Z,36.05
2023-02-14T18:51:13.416Z,30.20
2023-02-14T18:53:40.370Z,35.63
2023-02-14T18:56:10.357Z,31.80
2023-02-14T18:58:36.903Z,35.83
2023-02-14T19:01:13.987Z,41.08
2023-02-14T19:03:40.639Z,35.30
2023-02-14T19:06:08.380Z,30.30
2023-02-14T19:08:36.835Z,36.03
2023-02-14T19:11:03.850Z,37.30
2023-02-14T19:13:32.151Z,35.95
2023-02-14T19:15:59.419Z,35.20
2023-02-14T19:18:26.355Z,33.83
2023-02-14T19:20:53.054Z,38.53
2023-02-14T19:23:19.626Z,36.50
2023-02-14T19:25:46.097Z,37.95
2023-02-14T19:28:12.587Z,39.03
2023-02-14T19:30:39.317Z,39.88
2023-02-14T19:33:06.842Z,41.55
2023-02-14T19:35:33.312Z,37.38
2023-02-14T19:38:03.367Z,55.25
2023-02-14T19:40:30.779Z,41.33
2023-02-14T19:42:57.224Z,40.80
2023-02-14T19:45:23.752Z,39.55
2023-02-14T19:47:50.651Z,39.55
2023-02-14T19:50:18.803Z,41.83
2023-02-14T19:52:46.767Z,40.90
2023-02-14T19:55:20.714Z,39.20
2023-02-14T19:57:47.944Z,35.03
2023-02-14T20:00:16.197Z,39.35
2023-02-14T20:02:47.911Z,36.72
2023-02-14T20:05:15.897Z,44.25
2023-02-14T20:07:43.418Z,39.92
2023-02-14T20:10:13.723Z,40.20
2023-02-14T20:12:40.172Z,42.13
2023-02-14T20:15:08.708Z,42.30
2023-02-14T20:17:36.301Z,37.00
2023-02-14T20:20:03.122Z,45.42
2023-02-14T20:22:29.612Z,42.45
2023-02-14T20:24:56.088Z,37.78
2023-02-14T20:27:25.460Z,37.00
2023-02-14T20:29:52.279Z,42.33
2023-02-14T20:32:18.823Z,40.30
2023-02-14T20:34:45.338Z,40.25
2023-02-14T20:37:12.043Z,43.30
2023-02-14T20:39:38.689Z,41.85
2023-02-14T20:42:05.653Z,38.80
2023-02-14T20:44:32.099Z,39.65
2023-02-14T20:46:58.577Z,44.75
2023-02-14T20:49:26.891Z,35.72
2023-02-14T20:51:53.840Z,60.22
2023-02-14T20:54:23.351Z,38.88
2023-02-14T20:56:50.719Z,39.25
2023-02-14T20:59:19.255Z,47.10
2023-02-14T21:01:45.753Z,40.30
2023-02-14T21:04:13.892Z,34.40
2023-02-14T21:06:40.442Z,39.03
2023-02-14T21:09:06.964Z,33.97
2023-02-14T21:11:33.511Z,38.08
2023-02-14T21:14:00.935Z,47.60
2023-02-14T21:16:28.808Z,41.33
2023-02-14T21:18:58.991Z,39.92
2023-02-14T21:21:36.061Z,41.00
2023-02-14T21:24:06.011Z,46.67
2023-02-14T21:26:32.504Z,39.80
2023-02-14T21:28:58.979Z,31.55
2023-02-14T21:31:25.716Z,36.05
2023-02-14T21:33:54.530Z,64.88
2023-02-14T21:36:22.346Z,44.08
2023-02-14T21:38:49.119Z,35.92
2023-02-14T21:41:18.672Z,34.70
2023-02-14T21:43:46.546Z,45.30
2023-02-14T21:46:15.718Z,57.15
2023-02-14T21:49:01.372Z,43.10
2023-02-14T21:51:27.929Z,48.17
2023-02-14T21:53:54.981Z,37.83
2023-02-14T21:56:22.204Z,36.33
2023-02-14T21:58:50.629Z,31.42
2023-02-14T22:01:19.453Z,26.90
2023-02-14T22:03:46.187Z,28.05
2023-02-14T22:06:15.546Z,37.22
2023-02-14T22:08:42.763Z,28.65
2023-02-14T22:11:12.907Z,38.75
2023-02-14T22:13:39.620Z,32.45
2023-02-14T22:16:08.739Z,32.08
2023-02-14T22:18:35.238Z,44.83
2023-02-14T22:21:03.640Z,30.55
2023-02-14T22:23:31.208Z,36.05
2023-02-14T22:26:16.869Z,31.90
2023-02-14T22:28:45.427Z,40.67
2023-02-14T22:31:11.971Z,27.63
2023-02-14T22:33:39.061Z,34.00
2023-02-14T22:36:06.813Z,30.80
2023-02-14T22:38:34.118Z,29.58
2023-02-14T22:41:17.439Z,28.02
2023-02-14T22:43:44.622Z,30.85
2023-02-14T22:46:18.087Z,34.53
2023-02-14T22:48:44.900Z,31.90
2023-02-14T22:51:21.733Z,31.88
2023-02-14T22:53:49.742Z,33.90
2023-02-14T22:56:31.076Z,30.95
2023-02-14T22:58:59.680Z,34.97
2023-02-14T23:01:26.707Z,33.65
2023-02-14T23:03:57.529Z,33.58
2023-02-14T23:06:28.843Z,32.25
2023-02-14T23:08:56.139Z,28.85
2023-02-14T23:11:27.788Z,32.60
2023-02-14T23:14:13.546Z,30.85
2023-02-14T23:16:58.835Z,25.42
2023-02-14T23:19:46.423Z,26.92
2023-02-14T23:22:15.929Z,28.23
2023-02-14T23:24:42.856Z,25.80
2023-02-14T23:27:10.445Z,28.25
2023-02-14T23:29:37.215Z,23.55
2023-02-14T23:32:05.244Z,27.90
2023-02-14T23:34:33.253Z,27.48
2023-02-14T23:36:59.842Z,26.80
2023-02-14T23:39:26.311Z,22.88
2023-02-14T23:41:53.809Z,23.58
2023-02-14T23:44:21.219Z,22.88
2023-02-14T23:46:49.584Z,23.77
2023-02-14T23:49:16.543Z,21.00
2023-02-14T23:51:44.327Z,22.75
2023-02-14T23:54:11.614Z,23.00
2023-02-14T23:56:38.452Z,20.70
2023-02-14T23:59:05.676Z,25.27
